Folkston, Georgia
Current Conditions -  °F | °C
As of 12:56 AM on Friday 19 Dec 2014 (Local Time) from KJAX Reporting Station
Scattered Clouds Scattered Clouds  
Wind Chill: 44°   Ceiling: Unl
Heat Index: 44°   Visibility: 10mi
Dew Point: 43°   Wind: 0mph
Humidity: 96%   Direction: NA
Pressure: 30.12"   Gusts: NA
Location:  30.83°N, 82.01°W
Report Text: KJAX 190556Z 00000KT 10SM FEW150 SCT250 07/06 A3012 RMK AO2 SLP199 T00670061 10117 20067 50000
Loading
Personal Weather Stations






























Interactive Weather Map New forecast layout! Learn more

10-Day Weather Forecast

Advertisements
Track Severe Weather on mobile